sensor_id;sensor_type;location;lat;lon;timestamp;P1;durP1;ratioP1;P2;durP2;ratioP2
12267;SDS011;6196;48.398;11.736;2022-09-09T00:01:37;2.87;;;1.90;;
12267;SDS011;6196;48.398;11.736;2022-09-09T00:04:29;3.27;;;1.80;;
12267;SDS011;6196;48.398;11.736;2022-09-09T00:07:06;3.00;;;1.90;;
12267;SDS011;6196;48.398;11.736;2022-09-09T00:16:00;2.20;;;1.30;;
12267;SDS011;6196;48.398;11.736;2022-09-09T00:21:32;2.53;;;1.60;;
12267;SDS011;6196;48.398;11.736;2022-09-09T00:24:08;1.90;;;1.23;;
12267;SDS011;6196;48.398;11.736;2022-09-09T00:26:53;3.30;;;2.00;;
12267;SDS011;6196;48.398;11.736;2022-09-09T00:30:11;5.90;;;1.90;;
12267;SDS011;6196;48.398;11.736;2022-09-09T00:32:38;2.50;;;2.00;;
12267;SDS011;6196;48.398;11.736;2022-09-09T00:37:53;3.30;;;2.10;;
12267;SDS011;6196;48.398;11.736;2022-09-09T00:40:26;3.47;;;2.00;;
12267;SDS011;6196;48.398;11.736;2022-09-09T00:43:21;2.73;;;1.70;;
12267;SDS011;6196;48.398;11.736;2022-09-09T00:57:29;1.77;;;1.40;;
12267;SDS011;6196;48.398;11.736;2022-09-09T01:00:14;2.27;;;1.80;;
12267;SDS011;6196;48.398;11.736;2022-09-09T01:09:17;2.43;;;1.70;;
12267;SDS011;6196;48.398;11.736;2022-09-09T01:12:09;2.17;;;1.53;;
12267;SDS011;6196;48.398;11.736;2022-09-09T01:14:48;5.13;;;2.10;;
12267;SDS011;6196;48.398;11.736;2022-09-09T01:17:22;3.43;;;2.03;;
12267;SDS011;6196;48.398;11.736;2022-09-09T01:28:46;4.93;;;2.20;;
12267;SDS011;6196;48.398;11.736;2022-09-09T01:34:18;3.10;;;1.50;;
12267;SDS011;6196;48.398;11.736;2022-09-09T01:36:51;2.70;;;1.70;;
12267;SDS011;6196;48.398;11.736;2022-09-09T01:39:26;3.27;;;1.70;;
12267;SDS011;6196;48.398;11.736;2022-09-09T01:41:53;2.40;;;2.10;;
12267;SDS011;6196;48.398;11.736;2022-09-09T01:44:22;3.10;;;1.60;;
12267;SDS011;6196;48.398;11.736;2022-09-09T01:46:50;2.30;;;1.80;;
12267;SDS011;6196;48.398;11.736;2022-09-09T01:49:17;2.47;;;1.80;;
12267;SDS011;6196;48.398;11.736;2022-09-09T01:51:46;2.87;;;2.23;;
12267;SDS011;6196;48.398;11.736;2022-09-09T01:54:19;3.20;;;2.27;;
12267;SDS011;6196;48.398;11.736;2022-09-09T01:59:51;4.53;;;2.13;;
12267;SDS011;6196;48.398;11.736;2022-09-09T02:05:33;2.80;;;2.40;;
12267;SDS011;6196;48.398;11.736;2022-09-09T02:08:07;3.10;;;2.10;;
12267;SDS011;6196;48.398;11.736;2022-09-09T02:13:14;4.53;;;2.20;;
12267;SDS011;6196;48.398;11.736;2022-09-09T02:15:47;6.07;;;2.70;;
12267;SDS011;6196;48.398;11.736;2022-09-09T02:18:32;3.20;;;2.37;;
12267;SDS011;6196;48.398;11.736;2022-09-09T02:21:17;4.53;;;2.63;;
12267;SDS011;6196;48.398;11.736;2022-09-09T02:23:45;4.30;;;2.57;;
12267;SDS011;6196;48.398;11.736;2022-09-09T02:26:14;5.00;;;3.30;;
12267;SDS011;6196;48.398;11.736;2022-09-09T02:28:46;8.03;;;3.60;;
12267;SDS011;6196;48.398;11.736;2022-09-09T02:31:19;4.87;;;3.23;;
12267;SDS011;6196;48.398;11.736;2022-09-09T02:33:51;5.53;;;3.37;;
12267;SDS011;6196;48.398;11.736;2022-09-09T02:36:22;5.00;;;3.40;;
12267;SDS011;6196;48.398;11.736;2022-09-09T02:38:52;7.23;;;3.83;;
12267;SDS011;6196;48.398;11.736;2022-09-09T02:41:20;4.70;;;3.37;;
12267;SDS011;6196;48.398;11.736;2022-09-09T02:43:53;8.00;;;3.27;;
12267;SDS011;6196;48.398;11.736;2022-09-09T02:49:40;3.47;;;3.17;;
12267;SDS011;6196;48.398;11.736;2022-09-09T02:52:13;5.93;;;3.07;;
12267;SDS011;6196;48.398;11.736;2022-09-09T02:54:42;3.97;;;3.17;;
12267;SDS011;6196;48.398;11.736;2022-09-09T02:57:14;5.30;;;2.83;;
12267;SDS011;6196;48.398;11.736;2022-09-09T02:59:47;2.90;;;2.50;;
12267;SDS011;6196;48.398;11.736;2022-09-09T03:02:16;4.97;;;3.50;;
12267;SDS011;6196;48.398;11.736;2022-09-09T03:04:42;3.70;;;2.83;;
12267;SDS011;6196;48.398;11.736;2022-09-09T03:07:10;2.97;;;2.67;;
12267;SDS011;6196;48.398;11.736;2022-09-09T03:09:38;3.07;;;2.77;;
12267;SDS011;6196;48.398;11.736;2022-09-09T03:12:04;4.80;;;3.10;;
12267;SDS011;6196;48.398;11.736;2022-09-09T03:14:33;5.60;;;2.97;;
12267;SDS011;6196;48.398;11.736;2022-09-09T03:16:59;5.43;;;3.50;;
12267;SDS011;6196;48.398;11.736;2022-09-09T03:19:28;3.87;;;2.93;;
12267;SDS011;6196;48.398;11.736;2022-09-09T03:21:56;3.73;;;2.80;;
12267;SDS011;6196;48.398;11.736;2022-09-09T03:24:24;6.40;;;2.87;;
12267;SDS011;6196;48.398;11.736;2022-09-09T03:26:51;4.57;;;2.90;;
12267;SDS011;6196;48.398;11.736;2022-09-09T03:29:18;3.27;;;2.60;;
12267;SDS011;6196;48.398;11.736;2022-09-09T03:31:45;3.27;;;2.70;;
12267;SDS011;6196;48.398;11.736;2022-09-09T03:34:12;7.50;;;2.87;;
12267;SDS011;6196;48.398;11.736;2022-09-09T03:36:39;5.53;;;2.97;;
12267;SDS011;6196;48.398;11.736;2022-09-09T03:39:07;3.67;;;2.80;;
12267;SDS011;6196;48.398;11.736;2022-09-09T03:41:34;4.83;;;3.13;;
12267;SDS011;6196;48.398;11.736;2022-09-09T03:44:00;4.37;;;3.20;;
12267;SDS011;6196;48.398;11.736;2022-09-09T03:46:27;4.73;;;3.00;;
12267;SDS011;6196;48.398;11.736;2022-09-09T03:48:54;3.20;;;2.50;;
12267;SDS011;6196;48.398;11.736;2022-09-09T03:51:21;4.90;;;2.30;;
12267;SDS011;6196;48.398;11.736;2022-09-09T03:53:48;3.17;;;2.50;;
12267;SDS011;6196;48.398;11.736;2022-09-09T03:56:15;3.20;;;2.30;;
12267;SDS011;6196;48.398;11.736;2022-09-09T03:58:41;4.33;;;3.30;;
12267;SDS011;6196;48.398;11.736;2022-09-09T04:01:09;5.23;;;2.67;;
12267;SDS011;6196;48.398;11.736;2022-09-09T04:03:42;4.00;;;2.53;;
12267;SDS011;6196;48.398;11.736;2022-09-09T04:06:11;4.63;;;3.20;;
12267;SDS011;6196;48.398;11.736;2022-09-09T04:08:40;6.43;;;3.73;;
12267;SDS011;6196;48.398;11.736;2022-09-09T04:11:07;4.40;;;3.63;;
12267;SDS011;6196;48.398;11.736;2022-09-09T04:13:35;3.90;;;3.47;;
12267;SDS011;6196;48.398;11.736;2022-09-09T04:16:05;5.37;;;3.33;;
12267;SDS011;6196;48.398;11.736;2022-09-09T04:18:33;6.03;;;3.60;;
12267;SDS011;6196;48.398;11.736;2022-09-09T04:21:01;3.20;;;2.87;;
12267;SDS011;6196;48.398;11.736;2022-09-09T04:23:29;2.80;;;2.53;;
12267;SDS011;6196;48.398;11.736;2022-09-09T04:25:57;4.77;;;2.70;;
12267;SDS011;6196;48.398;11.736;2022-09-09T04:28:26;5.87;;;2.40;;
12267;SDS011;6196;48.398;11.736;2022-09-09T04:30:56;2.33;;;2.07;;
12267;SDS011;6196;48.398;11.736;2022-09-09T04:33:23;2.43;;;2.23;;
12267;SDS011;6196;48.398;11.736;2022-09-09T04:35:54;3.93;;;2.40;;
12267;SDS011;6196;48.398;11.736;2022-09-09T04:38:21;3.77;;;2.20;;
12267;SDS011;6196;48.398;11.736;2022-09-09T04:40:49;2.27;;;2.00;;
12267;SDS011;6196;48.398;11.736;2022-09-09T04:43:17;5.23;;;2.43;;
12267;SDS011;6196;48.398;11.736;2022-09-09T04:45:46;2.60;;;2.40;;
12267;SDS011;6196;48.398;11.736;2022-09-09T04:48:15;2.97;;;2.40;;
12267;SDS011;6196;48.398;11.736;2022-09-09T04:50:42;5.10;;;2.40;;
12267;SDS011;6196;48.398;11.736;2022-09-09T04:53:08;2.50;;;2.30;;
12267;SDS011;6196;48.398;11.736;2022-09-09T04:55:35;4.90;;;3.00;;
12267;SDS011;6196;48.398;11.736;2022-09-09T04:58:03;5.53;;;2.63;;
12267;SDS011;6196;48.398;11.736;2022-09-09T05:00:34;3.30;;;2.70;;
12267;SDS011;6196;48.398;11.736;2022-09-09T05:03:03;3.00;;;2.73;;
12267;SDS011;6196;48.398;11.736;2022-09-09T05:05:31;4.23;;;2.80;;
12267;SDS011;6196;48.398;11.736;2022-09-09T05:08:07;4.93;;;2.73;;
12267;SDS011;6196;48.398;11.736;2022-09-09T05:10:36;3.07;;;2.87;;
12267;SDS011;6196;48.398;11.736;2022-09-09T05:13:04;3.70;;;2.50;;
12267;SDS011;6196;48.398;11.736;2022-09-09T05:15:32;2.43;;;2.20;;
12267;SDS011;6196;48.398;11.736;2022-09-09T05:18:00;2.20;;;2.00;;
12267;SDS011;6196;48.398;11.736;2022-09-09T05:20:28;2.60;;;2.40;;
12267;SDS011;6196;48.398;11.736;2022-09-09T05:22:55;2.47;;;2.27;;
12267;SDS011;6196;48.398;11.736;2022-09-09T05:25:23;5.33;;;2.33;;
12267;SDS011;6196;48.398;11.736;2022-09-09T05:27:52;4.03;;;2.00;;
12267;SDS011;6196;48.398;11.736;2022-09-09T05:30:20;2.13;;;1.93;;
12267;SDS011;6196;48.398;11.736;2022-09-09T05:32:48;3.20;;;2.37;;
12267;SDS011;6196;48.398;11.736;2022-09-09T05:35:16;2.90;;;2.20;;
12267;SDS011;6196;48.398;11.736;2022-09-09T05:37:45;3.40;;;2.20;;
12267;SDS011;6196;48.398;11.736;2022-09-09T05:40:12;4.60;;;2.20;;
12267;SDS011;6196;48.398;11.736;2022-09-09T05:42:39;3.47;;;2.10;;
12267;SDS011;6196;48.398;11.736;2022-09-09T05:45:07;3.13;;;1.90;;
12267;SDS011;6196;48.398;11.736;2022-09-09T05:47:35;3.00;;;2.20;;
12267;SDS011;6196;48.398;11.736;2022-09-09T05:50:03;3.33;;;2.47;;
12267;SDS011;6196;48.398;11.736;2022-09-09T05:52:31;2.50;;;2.00;;
12267;SDS011;6196;48.398;11.736;2022-09-09T05:54:58;2.97;;;2.10;;
12267;SDS011;6196;48.398;11.736;2022-09-09T05:57:25;2.47;;;2.27;;
12267;SDS011;6196;48.398;11.736;2022-09-09T05:59:52;6.20;;;2.10;;
12267;SDS011;6196;48.398;11.736;2022-09-09T06:02:19;2.63;;;2.23;;
12267;SDS011;6196;48.398;11.736;2022-09-09T06:04:46;3.03;;;2.33;;
12267;SDS011;6196;48.398;11.736;2022-09-09T06:07:13;5.37;;;2.20;;
12267;SDS011;6196;48.398;11.736;2022-09-09T06:09:40;2.80;;;2.43;;
12267;SDS011;6196;48.398;11.736;2022-09-09T06:12:07;3.87;;;2.13;;
12267;SDS011;6196;48.398;11.736;2022-09-09T06:14:34;3.40;;;2.20;;
12267;SDS011;6196;48.398;11.736;2022-09-09T06:17:02;6.03;;;2.20;;
12267;SDS011;6196;48.398;11.736;2022-09-09T06:19:29;2.50;;;1.97;;
12267;SDS011;6196;48.398;11.736;2022-09-09T06:21:56;5.10;;;2.10;;
12267;SDS011;6196;48.398;11.736;2022-09-09T06:24:25;3.33;;;1.93;;
12267;SDS011;6196;48.398;11.736;2022-09-09T06:26:52;4.30;;;1.93;;
12267;SDS011;6196;48.398;11.736;2022-09-09T06:29:20;3.63;;;1.97;;
12267;SDS011;6196;48.398;11.736;2022-09-09T06:31:46;2.17;;;1.90;;
12267;SDS011;6196;48.398;11.736;2022-09-09T06:34:14;3.10;;;2.30;;
12267;SDS011;6196;48.398;11.736;2022-09-09T06:36:41;2.53;;;1.60;;
12267;SDS011;6196;48.398;11.736;2022-09-09T06:39:08;3.50;;;1.87;;
12267;SDS011;6196;48.398;11.736;2022-09-09T06:41:40;3.00;;;2.00;;
12267;SDS011;6196;48.398;11.736;2022-09-09T06:44:08;3.63;;;2.20;;
12267;SDS011;6196;48.398;11.736;2022-09-09T06:46:37;3.30;;;2.00;;
12267;SDS011;6196;48.398;11.736;2022-09-09T06:49:05;2.47;;;1.63;;
12267;SDS011;6196;48.398;11.736;2022-09-09T06:51:34;2.20;;;2.00;;
12267;SDS011;6196;48.398;11.736;2022-09-09T06:54:08;2.57;;;1.60;;
12267;SDS011;6196;48.398;11.736;2022-09-09T06:56:37;1.77;;;1.67;;
12267;SDS011;6196;48.398;11.736;2022-09-09T06:59:09;3.27;;;1.67;;
12267;SDS011;6196;48.398;11.736;2022-09-09T07:01:38;3.67;;;2.27;;
12267;SDS011;6196;48.398;11.736;2022-09-09T07:04:08;2.93;;;1.73;;
12267;SDS011;6196;48.398;11.736;2022-09-09T07:06:37;4.03;;;1.67;;
12267;SDS011;6196;48.398;11.736;2022-09-09T07:09:10;2.20;;;1.90;;
12267;SDS011;6196;48.398;11.736;2022-09-09T07:11:40;2.60;;;2.17;;
12267;SDS011;6196;48.398;11.736;2022-09-09T07:14:09;2.93;;;1.90;;
12267;SDS011;6196;48.398;11.736;2022-09-09T07:16:43;2.90;;;1.73;;
12267;SDS011;6196;48.398;11.736;2022-09-09T07:19:11;4.67;;;2.00;;
12267;SDS011;6196;48.398;11.736;2022-09-09T07:21:40;3.17;;;2.37;;
12267;SDS011;6196;48.398;11.736;2022-09-09T07:24:07;4.50;;;2.00;;
12267;SDS011;6196;48.398;11.736;2022-09-09T07:26:36;6.37;;;2.37;;
12267;SDS011;6196;48.398;11.736;2022-09-09T07:29:05;2.87;;;1.93;;
12267;SDS011;6196;48.398;11.736;2022-09-09T07:31:33;2.70;;;2.00;;
12267;SDS011;6196;48.398;11.736;2022-09-09T07:34:03;2.53;;;2.03;;
12267;SDS011;6196;48.398;11.736;2022-09-09T07:36:37;4.83;;;1.83;;
12267;SDS011;6196;48.398;11.736;2022-09-09T07:39:07;1.80;;;1.70;;
12267;SDS011;6196;48.398;11.736;2022-09-09T07:41:44;4.13;;;2.30;;
12267;SDS011;6196;48.398;11.736;2022-09-09T07:44:15;2.70;;;1.90;;
12267;SDS011;6196;48.398;11.736;2022-09-09T07:46:48;2.90;;;2.10;;
12267;SDS011;6196;48.398;11.736;2022-09-09T07:49:15;3.33;;;1.90;;
12267;SDS011;6196;48.398;11.736;2022-09-09T07:51:43;3.37;;;1.90;;
12267;SDS011;6196;48.398;11.736;2022-09-09T07:54:14;3.37;;;1.93;;
12267;SDS011;6196;48.398;11.736;2022-09-09T07:56:43;2.90;;;1.87;;
12267;SDS011;6196;48.398;11.736;2022-09-09T07:59:10;3.13;;;1.87;;
12267;SDS011;6196;48.398;11.736;2022-09-09T08:01:39;2.33;;;1.83;;
12267;SDS011;6196;48.398;11.736;2022-09-09T08:04:17;3.13;;;1.80;;
12267;SDS011;6196;48.398;11.736;2022-09-09T08:06:47;6.67;;;1.70;;
12267;SDS011;6196;48.398;11.736;2022-09-09T08:09:18;2.73;;;1.80;;
12267;SDS011;6196;48.398;11.736;2022-09-09T08:11:46;2.67;;;1.80;;
12267;SDS011;6196;48.398;11.736;2022-09-09T08:14:14;2.17;;;1.53;;
12267;SDS011;6196;48.398;11.736;2022-09-09T08:16:44;3.57;;;1.97;;
12267;SDS011;6196;48.398;11.736;2022-09-09T08:19:14;2.00;;;1.60;;
12267;SDS011;6196;48.398;11.736;2022-09-09T08:21:42;2.30;;;1.43;;
12267;SDS011;6196;48.398;11.736;2022-09-09T08:24:11;2.97;;;1.60;;
12267;SDS011;6196;48.398;11.736;2022-09-09T08:26:42;3.73;;;1.60;;
12267;SDS011;6196;48.398;11.736;2022-09-09T08:29:11;2.23;;;1.70;;
12267;SDS011;6196;48.398;11.736;2022-09-09T08:31:40;2.20;;;1.23;;
12267;SDS011;6196;48.398;11.736;2022-09-09T08:34:17;1.23;;;1.10;;
12267;SDS011;6196;48.398;11.736;2022-09-09T08:36:46;3.23;;;1.27;;
12267;SDS011;6196;48.398;11.736;2022-09-09T08:39:16;2.17;;;1.27;;
12267;SDS011;6196;48.398;11.736;2022-09-09T08:50:40;2.60;;;1.37;;
12267;SDS011;6196;48.398;11.736;2022-09-09T08:53:28;1.87;;;1.33;;
12267;SDS011;6196;48.398;11.736;2022-09-09T08:56:08;4.13;;;1.40;;
12267;SDS011;6196;48.398;11.736;2022-09-09T08:58:46;2.73;;;1.30;;
12267;SDS011;6196;48.398;11.736;2022-09-09T09:10:16;2.03;;;1.20;;
12267;SDS011;6196;48.398;11.736;2022-09-09T09:13:15;2.90;;;1.40;;
12267;SDS011;6196;48.398;11.736;2022-09-09T09:15:49;1.83;;;1.27;;
12267;SDS011;6196;48.398;11.736;2022-09-09T09:18:24;3.27;;;1.47;;
12267;SDS011;6196;48.398;11.736;2022-09-09T09:20:54;2.33;;;1.00;;
12267;SDS011;6196;48.398;11.736;2022-09-09T09:23:42;3.33;;;1.97;;
12267;SDS011;6196;48.398;11.736;2022-09-09T09:26:25;3.03;;;2.10;;
12267;SDS011;6196;48.398;11.736;2022-09-09T09:29:09;2.33;;;2.07;;
12267;SDS011;6196;48.398;11.736;2022-09-09T09:31:45;5.47;;;2.80;;
12267;SDS011;6196;48.398;11.736;2022-09-09T09:34:22;3.43;;;2.20;;
12267;SDS011;6196;48.398;11.736;2022-09-09T09:36:57;2.40;;;2.20;;
12267;SDS011;6196;48.398;11.736;2022-09-09T09:39:32;4.50;;;2.43;;
12267;SDS011;6196;48.398;11.736;2022-09-09T09:42:24;3.33;;;1.93;;
12267;SDS011;6196;48.398;11.736;2022-09-09T09:44:51;3.63;;;1.97;;
12267;SDS011;6196;48.398;11.736;2022-09-09T09:47:19;3.63;;;2.00;;
12267;SDS011;6196;48.398;11.736;2022-09-09T09:49:57;6.27;;;2.07;;
12267;SDS011;6196;48.398;11.736;2022-09-09T09:52:26;2.10;;;1.70;;
12267;SDS011;6196;48.398;11.736;2022-09-09T09:54:58;2.97;;;1.80;;
12267;SDS011;6196;48.398;11.736;2022-09-09T09:57:33;5.80;;;2.50;;
12267;SDS011;6196;48.398;11.736;2022-09-09T10:02:40;3.80;;;2.40;;
12267;SDS011;6196;48.398;11.736;2022-09-09T10:05:17;4.43;;;2.30;;
12267;SDS011;6196;48.398;11.736;2022-09-09T10:08:02;3.17;;;2.20;;
12267;SDS011;6196;48.398;11.736;2022-09-09T10:13:27;3.57;;;2.30;;
12267;SDS011;6196;48.398;11.736;2022-09-09T10:16:13;3.03;;;2.33;;
12267;SDS011;6196;48.398;11.736;2022-09-09T10:30:45;2.67;;;2.03;;
12267;SDS011;6196;48.398;11.736;2022-09-09T10:36:24;4.30;;;2.17;;
12267;SDS011;6196;48.398;11.736;2022-09-09T10:38:53;3.33;;;2.73;;
12267;SDS011;6196;48.398;11.736;2022-09-09T10:56:04;2.90;;;2.40;;
12267;SDS011;6196;48.398;11.736;2022-09-09T10:58:40;3.83;;;1.97;;
12267;SDS011;6196;48.398;11.736;2022-09-09T11:01:37;3.97;;;2.40;;
12267;SDS011;6196;48.398;11.736;2022-09-09T11:04:38;2.27;;;2.00;;
12267;SDS011;6196;48.398;11.736;2022-09-09T11:07:16;3.30;;;1.97;;
12267;SDS011;6196;48.398;11.736;2022-09-09T11:10:04;4.83;;;2.03;;
12267;SDS011;6196;48.398;11.736;2022-09-09T11:12:52;2.10;;;1.87;;
12267;SDS011;6196;48.398;11.736;2022-09-09T11:15:26;4.07;;;2.13;;
12267;SDS011;6196;48.398;11.736;2022-09-09T11:18:13;4.17;;;2.17;;
12267;SDS011;6196;48.398;11.736;2022-09-09T11:20:47;3.67;;;2.20;;
12267;SDS011;6196;48.398;11.736;2022-09-09T11:23:25;2.50;;;2.03;;
12267;SDS011;6196;48.398;11.736;2022-09-09T11:26:07;2.43;;;2.10;;
12267;SDS011;6196;48.398;11.736;2022-09-09T11:38:01;2.53;;;1.93;;
12267;SDS011;6196;48.398;11.736;2022-09-09T11:41:12;2.93;;;2.00;;
12267;SDS011;6196;48.398;11.736;2022-09-09T11:43:47;3.70;;;2.00;;
12267;SDS011;6196;48.398;11.736;2022-09-09T11:46:22;6.77;;;2.10;;
12267;SDS011;6196;48.398;11.736;2022-09-09T11:49:02;3.10;;;2.00;;
12267;SDS011;6196;48.398;11.736;2022-09-09T11:52:25;5.10;;;2.20;;
12267;SDS011;6196;48.398;11.736;2022-09-09T12:00:39;1.83;;;1.57;;
12267;SDS011;6196;48.398;11.736;2022-09-09T12:06:11;2.33;;;1.33;;
12267;SDS011;6196;48.398;11.736;2022-09-09T12:08:41;3.77;;;1.53;;
12267;SDS011;6196;48.398;11.736;2022-09-09T12:11:11;3.57;;;1.50;;
12267;SDS011;6196;48.398;11.736;2022-09-09T12:13:38;3.10;;;1.30;;
12267;SDS011;6196;48.398;11.736;2022-09-09T12:16:26;2.60;;;1.23;;
12267;SDS011;6196;48.398;11.736;2022-09-09T12:19:02;2.90;;;1.40;;
12267;SDS011;6196;48.398;11.736;2022-09-09T12:21:36;1.80;;;1.00;;
12267;SDS011;6196;48.398;11.736;2022-09-09T12:24:30;2.60;;;1.23;;
12267;SDS011;6196;48.398;11.736;2022-09-09T12:27:23;1.33;;;1.00;;
12267;SDS011;6196;48.398;11.736;2022-09-09T12:30:14;2.80;;;1.30;;
12267;SDS011;6196;48.398;11.736;2022-09-09T12:32:42;3.50;;;1.20;;
12267;SDS011;6196;48.398;11.736;2022-09-09T12:35:20;1.50;;;0.90;;
12267;SDS011;6196;48.398;11.736;2022-09-09T12:40:29;2.37;;;1.07;;
12267;SDS011;6196;48.398;11.736;2022-09-09T12:43:20;5.83;;;1.10;;
12267;SDS011;6196;48.398;11.736;2022-09-09T12:45:49;1.40;;;0.90;;
12267;SDS011;6196;48.398;11.736;2022-09-09T12:48:36;3.43;;;1.00;;
12267;SDS011;6196;48.398;11.736;2022-09-09T12:54:04;1.70;;;0.67;;
12267;SDS011;6196;48.398;11.736;2022-09-09T12:56:31;4.57;;;0.80;;
12267;SDS011;6196;48.398;11.736;2022-09-09T12:59:01;1.37;;;0.80;;
12267;SDS011;6196;48.398;11.736;2022-09-09T13:01:31;2.03;;;0.70;;
12267;SDS011;6196;48.398;11.736;2022-09-09T13:03:59;1.70;;;0.80;;
12267;SDS011;6196;48.398;11.736;2022-09-09T13:06:30;0.80;;;0.70;;
12267;SDS011;6196;48.398;11.736;2022-09-09T13:08:59;2.40;;;0.80;;
12267;SDS011;6196;48.398;11.736;2022-09-09T13:14:02;1.83;;;0.80;;
12267;SDS011;6196;48.398;11.736;2022-09-09T13:16:30;1.60;;;0.67;;
12267;SDS011;6196;48.398;11.736;2022-09-09T13:19:09;1.20;;;0.80;;
12267;SDS011;6196;48.398;11.736;2022-09-09T13:21:41;1.77;;;0.70;;
12267;SDS011;6196;48.398;11.736;2022-09-09T13:24:25;1.00;;;0.60;;
12267;SDS011;6196;48.398;11.736;2022-09-09T13:27:04;2.90;;;0.60;;
12267;SDS011;6196;48.398;11.736;2022-09-09T13:29:51;2.10;;;0.90;;
12267;SDS011;6196;48.398;11.736;2022-09-09T13:32:23;1.20;;;0.70;;
12267;SDS011;6196;48.398;11.736;2022-09-09T13:34:56;3.67;;;0.97;;
12267;SDS011;6196;48.398;11.736;2022-09-09T13:40:00;1.43;;;0.60;;
12267;SDS011;6196;48.398;11.736;2022-09-09T13:42:30;1.13;;;0.70;;
12267;SDS011;6196;48.398;11.736;2022-09-09T13:45:02;2.20;;;0.70;;
12267;SDS011;6196;48.398;11.736;2022-09-09T13:47:34;2.23;;;1.03;;
12267;SDS011;6196;48.398;11.736;2022-09-09T13:50:18;2.50;;;0.80;;
12267;SDS011;6196;48.398;11.736;2022-09-09T13:52:55;4.53;;;0.87;;
12267;SDS011;6196;48.398;11.736;2022-09-09T13:55:27;2.50;;;0.97;;
12267;SDS011;6196;48.398;11.736;2022-09-09T14:00:32;1.87;;;0.70;;
12267;SDS011;6196;48.398;11.736;2022-09-09T14:03:00;1.93;;;0.70;;
12267;SDS011;6196;48.398;11.736;2022-09-09T14:05:28;2.10;;;0.90;;
12267;SDS011;6196;48.398;11.736;2022-09-09T14:07:58;1.40;;;0.80;;
12267;SDS011;6196;48.398;11.736;2022-09-09T14:10:26;2.13;;;0.70;;
12267;SDS011;6196;48.398;11.736;2022-09-09T14:12:53;1.97;;;0.83;;
12267;SDS011;6196;48.398;11.736;2022-09-09T14:15:20;3.43;;;0.80;;
12267;SDS011;6196;48.398;11.736;2022-09-09T14:17:47;2.40;;;0.90;;
12267;SDS011;6196;48.398;11.736;2022-09-09T14:20:14;1.70;;;0.80;;
12267;SDS011;6196;48.398;11.736;2022-09-09T14:22:43;2.93;;;0.90;;
12267;SDS011;6196;48.398;11.736;2022-09-09T14:25:10;1.37;;;0.70;;
12267;SDS011;6196;48.398;11.736;2022-09-09T14:27:39;3.30;;;0.70;;
12267;SDS011;6196;48.398;11.736;2022-09-09T14:30:06;2.23;;;0.90;;
12267;SDS011;6196;48.398;11.736;2022-09-09T14:32:34;1.37;;;0.77;;
12267;SDS011;6196;48.398;11.736;2022-09-09T14:35:01;1.70;;;0.60;;
12267;SDS011;6196;48.398;11.736;2022-09-09T14:37:28;2.17;;;0.80;;
12267;SDS011;6196;48.398;11.736;2022-09-09T14:39:57;1.63;;;0.60;;
12267;SDS011;6196;48.398;11.736;2022-09-09T14:42:24;2.33;;;0.60;;
12267;SDS011;6196;48.398;11.736;2022-09-09T14:44:52;1.10;;;0.50;;
12267;SDS011;6196;48.398;11.736;2022-09-09T14:47:19;0.57;;;0.50;;
12267;SDS011;6196;48.398;11.736;2022-09-09T14:49:46;1.13;;;0.60;;
12267;SDS011;6196;48.398;11.736;2022-09-09T14:52:15;1.80;;;0.70;;
12267;SDS011;6196;48.398;11.736;2022-09-09T14:54:42;1.10;;;0.60;;
12267;SDS011;6196;48.398;11.736;2022-09-09T14:57:09;1.07;;;0.50;;
12267;SDS011;6196;48.398;11.736;2022-09-09T14:59:36;0.90;;;0.60;;
12267;SDS011;6196;48.398;11.736;2022-09-09T15:02:02;2.63;;;0.80;;
12267;SDS011;6196;48.398;11.736;2022-09-09T15:04:30;2.13;;;0.63;;
12267;SDS011;6196;48.398;11.736;2022-09-09T15:06:57;0.67;;;0.53;;
12267;SDS011;6196;48.398;11.736;2022-09-09T15:09:24;1.10;;;0.50;;
12267;SDS011;6196;48.398;11.736;2022-09-09T15:11:51;2.43;;;0.60;;
12267;SDS011;6196;48.398;11.736;2022-09-09T15:14:18;1.20;;;1.07;;
12267;SDS011;6196;48.398;11.736;2022-09-09T15:16:50;0.80;;;0.60;;
12267;SDS011;6196;48.398;11.736;2022-09-09T15:19:17;2.03;;;0.90;;
12267;SDS011;6196;48.398;11.736;2022-09-09T15:21:43;1.57;;;0.87;;
12267;SDS011;6196;48.398;11.736;2022-09-09T15:24:10;2.33;;;0.80;;
12267;SDS011;6196;48.398;11.736;2022-09-09T15:26:39;1.13;;;0.70;;
12267;SDS011;6196;48.398;11.736;2022-09-09T15:29:06;1.23;;;0.80;;
12267;SDS011;6196;48.398;11.736;2022-09-09T15:31:34;1.93;;;0.80;;
12267;SDS011;6196;48.398;11.736;2022-09-09T15:34:02;1.07;;;0.70;;
12267;SDS011;6196;48.398;11.736;2022-09-09T15:36:33;2.63;;;0.97;;
12267;SDS011;6196;48.398;11.736;2022-09-09T15:39:02;1.27;;;0.70;;
12267;SDS011;6196;48.398;11.736;2022-09-09T15:41:31;3.40;;;1.10;;
12267;SDS011;6196;48.398;11.736;2022-09-09T15:43:59;4.33;;;0.90;;
12267;SDS011;6196;48.398;11.736;2022-09-09T15:46:30;1.40;;;0.70;;
12267;SDS011;6196;48.398;11.736;2022-09-09T15:49:06;2.37;;;0.77;;
12267;SDS011;6196;48.398;11.736;2022-09-09T15:51:46;3.13;;;1.27;;
12267;SDS011;6196;48.398;11.736;2022-09-09T15:54:19;2.43;;;1.80;;
12267;SDS011;6196;48.398;11.736;2022-09-09T15:56:50;5.90;;;0.80;;
12267;SDS011;6196;48.398;11.736;2022-09-09T15:59:23;1.13;;;0.70;;
12267;SDS011;6196;48.398;11.736;2022-09-09T16:01:53;2.43;;;0.93;;
12267;SDS011;6196;48.398;11.736;2022-09-09T16:04:21;3.17;;;0.77;;
12267;SDS011;6196;48.398;11.736;2022-09-09T16:06:53;1.10;;;0.80;;
12267;SDS011;6196;48.398;11.736;2022-09-09T16:09:31;2.50;;;0.90;;
12267;SDS011;6196;48.398;11.736;2022-09-09T16:11:59;1.57;;;0.80;;
12267;SDS011;6196;48.398;11.736;2022-09-09T16:14:28;1.30;;;0.60;;
12267;SDS011;6196;48.398;11.736;2022-09-09T16:17:00;1.83;;;0.70;;
12267;SDS011;6196;48.398;11.736;2022-09-09T16:19:27;1.80;;;0.90;;
12267;SDS011;6196;48.398;11.736;2022-09-09T16:21:53;1.17;;;0.60;;
12267;SDS011;6196;48.398;11.736;2022-09-09T16:24:20;0.90;;;0.57;;
12267;SDS011;6196;48.398;11.736;2022-09-09T16:26:48;1.90;;;0.67;;
12267;SDS011;6196;48.398;11.736;2022-09-09T16:29:18;1.23;;;0.70;;
12267;SDS011;6196;48.398;11.736;2022-09-09T16:31:46;3.00;;;0.70;;
12267;SDS011;6196;48.398;11.736;2022-09-09T16:34:14;3.10;;;0.80;;
12267;SDS011;6196;48.398;11.736;2022-09-09T16:36:43;4.03;;;0.90;;
12267;SDS011;6196;48.398;11.736;2022-09-09T16:39:12;3.70;;;1.00;;
12267;SDS011;6196;48.398;11.736;2022-09-09T16:41:43;2.27;;;0.90;;
12267;SDS011;6196;48.398;11.736;2022-09-09T16:44:12;1.90;;;0.90;;
12267;SDS011;6196;48.398;11.736;2022-09-09T16:46:41;1.77;;;0.77;;
12267;SDS011;6196;48.398;11.736;2022-09-09T16:49:10;0.80;;;0.50;;
12267;SDS011;6196;48.398;11.736;2022-09-09T16:51:40;1.40;;;0.63;;
12267;SDS011;6196;48.398;11.736;2022-09-09T16:54:13;2.57;;;0.80;;
12267;SDS011;6196;48.398;11.736;2022-09-09T16:56:42;3.70;;;0.97;;
12267;SDS011;6196;48.398;11.736;2022-09-09T16:59:12;2.00;;;0.90;;
12267;SDS011;6196;48.398;11.736;2022-09-09T17:01:43;2.73;;;0.90;;
12267;SDS011;6196;48.398;11.736;2022-09-09T17:04:12;3.37;;;0.93;;
12267;SDS011;6196;48.398;11.736;2022-09-09T17:06:46;1.17;;;0.90;;
12267;SDS011;6196;48.398;11.736;2022-09-09T17:09:15;1.80;;;0.90;;
12267;SDS011;6196;48.398;11.736;2022-09-09T17:11:43;4.97;;;0.80;;
12267;SDS011;6196;48.398;11.736;2022-09-09T17:14:13;1.40;;;0.70;;
12267;SDS011;6196;48.398;11.736;2022-09-09T17:16:43;2.13;;;0.80;;
12267;SDS011;6196;48.398;11.736;2022-09-09T17:19:10;2.83;;;0.90;;
12267;SDS011;6196;48.398;11.736;2022-09-09T17:21:38;1.43;;;0.60;;
12267;SDS011;6196;48.398;11.736;2022-09-09T17:24:26;3.67;;;0.90;;
12267;SDS011;6196;48.398;11.736;2022-09-09T17:26:55;2.43;;;0.90;;
12267;SDS011;6196;48.398;11.736;2022-09-09T17:29:21;2.50;;;1.07;;
12267;SDS011;6196;48.398;11.736;2022-09-09T17:31:48;2.50;;;0.90;;
12267;SDS011;6196;48.398;11.736;2022-09-09T17:34:15;2.67;;;0.90;;